sensor_id;sensor_type;location;lat;lon;timestamp;temperature;humidity
64620;DHT22;51029;51.058;13.826;2022-11-27T00:00:33;6.80;99.90
64620;DHT22;51029;51.058;13.826;2022-11-27T00:02:58;6.70;99.90
64620;DHT22;51029;51.058;13.826;2022-11-27T00:05:24;6.80;99.90
64620;DHT22;51029;51.058;13.826;2022-11-27T00:07:50;6.70;99.90
64620;DHT22;51029;51.058;13.826;2022-11-27T00:10:15;6.80;99.90
64620;DHT22;51029;51.058;13.826;2022-11-27T00:12:41;6.80;99.90
64620;DHT22;51029;51.058;13.826;2022-11-27T00:15:06;6.80;99.90
64620;DHT22;51029;51.058;13.826;2022-11-27T00:17:32;6.80;99.90
64620;DHT22;51029;51.058;13.826;2022-11-27T00:19:58;6.80;99.90
64620;DHT22;51029;51.058;13.826;2022-11-27T00:22:23;6.80;99.90
64620;DHT22;51029;51.058;13.826;2022-11-27T00:24:50;6.80;99.90
64620;DHT22;51029;51.058;13.826;2022-11-27T00:27:16;6.80;99.90
64620;DHT22;51029;51.058;13.826;2022-11-27T00:29:42;6.70;99.90
64620;DHT22;51029;51.058;13.826;2022-11-27T00:32:08;6.60;99.90
64620;DHT22;51029;51.058;13.826;2022-11-27T00:34:33;6.60;99.90
64620;DHT22;51029;51.058;13.826;2022-11-27T00:36:59;6.50;99.90
64620;DHT22;51029;51.058;13.826;2022-11-27T00:39:25;6.40;99.90
64620;DHT22;51029;51.058;13.826;2022-11-27T00:41:52;6.40;99.90
64620;DHT22;51029;51.058;13.826;2022-11-27T00:44:17;6.30;99.90
64620;DHT22;51029;51.058;13.826;2022-11-27T00:46:43;6.20;99.90
64620;DHT22;51029;51.058;13.826;2022-11-27T00:49:10;6.20;99.90
64620;DHT22;51029;51.058;13.826;2022-11-27T00:51:36;6.20;99.90
64620;DHT22;51029;51.058;13.826;2022-11-27T00:54:02;6.10;99.90
64620;DHT22;51029;51.058;13.826;2022-11-27T00:56:31;6.20;99.90
64620;DHT22;51029;51.058;13.826;2022-11-27T00:58:57;6.20;99.90
64620;DHT22;51029;51.058;13.826;2022-11-27T01:01:25;6.20;99.90
64620;DHT22;51029;51.058;13.826;2022-11-27T01:03:53;6.10;99.90
64620;DHT22;51029;51.058;13.826;2022-11-27T01:06:21;6.10;99.90
64620;DHT22;51029;51.058;13.826;2022-11-27T01:08:47;6.10;99.90
64620;DHT22;51029;51.058;13.826;2022-11-27T01:11:18;6.10;99.90
64620;DHT22;51029;51.058;13.826;2022-11-27T01:13:45;6.10;99.90
64620;DHT22;51029;51.058;13.826;2022-11-27T01:16:17;6.00;99.90
64620;DHT22;51029;51.058;13.826;2022-11-27T01:18:44;6.00;99.90
64620;DHT22;51029;51.058;13.826;2022-11-27T01:21:11;6.00;99.90
64620;DHT22;51029;51.058;13.826;2022-11-27T01:23:37;5.90;99.90
64620;DHT22;51029;51.058;13.826;2022-11-27T01:26:05;5.90;99.90
64620;DHT22;51029;51.058;13.826;2022-11-27T01:28:32;5.90;99.90
64620;DHT22;51029;51.058;13.826;2022-11-27T01:31:02;5.90;99.90
64620;DHT22;51029;51.058;13.826;2022-11-27T01:33:28;5.80;99.90
64620;DHT22;51029;51.058;13.826;2022-11-27T01:35:58;5.70;99.90
64620;DHT22;51029;51.058;13.826;2022-11-27T01:38:25;5.60;99.90
64620;DHT22;51029;51.058;13.826;2022-11-27T01:41:06;5.60;99.90
64620;DHT22;51029;51.058;13.826;2022-11-27T01:43:47;5.60;99.90
64620;DHT22;51029;51.058;13.826;2022-11-27T01:46:35;5.60;99.90
64620;DHT22;51029;51.058;13.826;2022-11-27T01:49:10;5.50;99.90
64620;DHT22;51029;51.058;13.826;2022-11-27T01:54:08;5.50;99.90
64620;DHT22;51029;51.058;13.826;2022-11-27T01:56:34;5.40;99.90
64620;DHT22;51029;51.058;13.826;2022-11-27T01:59:01;5.40;99.90
64620;DHT22;51029;51.058;13.826;2022-11-27T02:01:27;5.30;99.90
64620;DHT22;51029;51.058;13.826;2022-11-27T02:03:53;5.30;99.90
64620;DHT22;51029;51.058;13.826;2022-11-27T02:06:21;5.20;99.90
64620;DHT22;51029;51.058;13.826;2022-11-27T02:08:47;5.20;99.90
64620;DHT22;51029;51.058;13.826;2022-11-27T02:13:51;5.00;99.90
64620;DHT22;51029;51.058;13.826;2022-11-27T02:16:33;4.90;99.90
64620;DHT22;51029;51.058;13.826;2022-11-27T02:21:52;4.60;99.90
64620;DHT22;51029;51.058;13.826;2022-11-27T02:24:32;4.60;99.90
64620;DHT22;51029;51.058;13.826;2022-11-27T02:30:00;4.40;99.90
64620;DHT22;51029;51.058;13.826;2022-11-27T02:32:54;4.40;99.90
64620;DHT22;51029;51.058;13.826;2022-11-27T02:35:41;4.30;99.90
64620;DHT22;51029;51.058;13.826;2022-11-27T02:38:16;4.20;99.90
64620;DHT22;51029;51.058;13.826;2022-11-27T02:41:04;4.20;99.90
64620;DHT22;51029;51.058;13.826;2022-11-27T02:43:35;4.20;99.90
64620;DHT22;51029;51.058;13.826;2022-11-27T02:46:02;4.10;99.90
64620;DHT22;51029;51.058;13.826;2022-11-27T02:48:33;4.00;99.90
64620;DHT22;51029;51.058;13.826;2022-11-27T02:51:01;4.00;99.90
64620;DHT22;51029;51.058;13.826;2022-11-27T02:53:35;3.90;99.90
64620;DHT22;51029;51.058;13.826;2022-11-27T02:56:05;3.80;99.90
64620;DHT22;51029;51.058;13.826;2022-11-27T02:58:34;3.80;99.90
64620;DHT22;51029;51.058;13.826;2022-11-27T03:01:03;3.80;99.90
64620;DHT22;51029;51.058;13.826;2022-11-27T03:03:34;3.80;99.90
64620;DHT22;51029;51.058;13.826;2022-11-27T03:06:05;3.60;99.90
64620;DHT22;51029;51.058;13.826;2022-11-27T03:08:37;3.60;99.90
64620;DHT22;51029;51.058;13.826;2022-11-27T03:11:13;3.60;99.90
64620;DHT22;51029;51.058;13.826;2022-11-27T03:13:46;3.60;99.90
64620;DHT22;51029;51.058;13.826;2022-11-27T03:19:18;3.70;99.90
64620;DHT22;51029;51.058;13.826;2022-11-27T03:21:48;3.70;99.90
64620;DHT22;51029;51.058;13.826;2022-11-27T03:24:14;3.70;99.90
64620;DHT22;51029;51.058;13.826;2022-11-27T03:26:40;3.80;99.90
64620;DHT22;51029;51.058;13.826;2022-11-27T03:29:11;3.80;99.90
64620;DHT22;51029;51.058;13.826;2022-11-27T03:31:37;3.80;99.90
64620;DHT22;51029;51.058;13.826;2022-11-27T03:34:03;3.70;99.90
64620;DHT22;51029;51.058;13.826;2022-11-27T03:36:29;3.70;99.90
64620;DHT22;51029;51.058;13.826;2022-11-27T03:38:55;3.60;99.90
64620;DHT22;51029;51.058;13.826;2022-11-27T03:41:43;3.60;99.90
64620;DHT22;51029;51.058;13.826;2022-11-27T03:53:09;3.30;99.90
64620;DHT22;51029;51.058;13.826;2022-11-27T03:55:48;3.30;99.90
64620;DHT22;51029;51.058;13.826;2022-11-27T03:58:22;3.20;99.90
64620;DHT22;51029;51.058;13.826;2022-11-27T04:00:50;3.20;99.90
64620;DHT22;51029;51.058;13.826;2022-11-27T04:03:23;3.10;99.90
64620;DHT22;51029;51.058;13.826;2022-11-27T04:05:49;3.10;99.90
64620;DHT22;51029;51.058;13.826;2022-11-27T04:08:15;3.00;99.90
64620;DHT22;51029;51.058;13.826;2022-11-27T04:10:40;3.00;99.90
64620;DHT22;51029;51.058;13.826;2022-11-27T04:13:06;3.00;99.90
64620;DHT22;51029;51.058;13.826;2022-11-27T04:15:31;2.90;99.90
64620;DHT22;51029;51.058;13.826;2022-11-27T04:17:57;2.90;99.90
64620;DHT22;51029;51.058;13.826;2022-11-27T04:20:23;2.90;99.90
64620;DHT22;51029;51.058;13.826;2022-11-27T04:22:48;2.90;99.90
64620;DHT22;51029;51.058;13.826;2022-11-27T04:25:14;2.80;99.90
64620;DHT22;51029;51.058;13.826;2022-11-27T04:27:39;2.80;99.90
64620;DHT22;51029;51.058;13.826;2022-11-27T04:30:06;2.70;99.90
64620;DHT22;51029;51.058;13.826;2022-11-27T04:32:31;2.70;99.90
64620;DHT22;51029;51.058;13.826;2022-11-27T04:34:57;2.60;99.90
64620;DHT22;51029;51.058;13.826;2022-11-27T04:37:23;2.60;99.90
64620;DHT22;51029;51.058;13.826;2022-11-27T04:39:48;2.50;99.90
64620;DHT22;51029;51.058;13.826;2022-11-27T04:42:14;2.50;99.90
64620;DHT22;51029;51.058;13.826;2022-11-27T04:44:39;2.50;99.90
64620;DHT22;51029;51.058;13.826;2022-11-27T04:47:06;2.50;99.90
64620;DHT22;51029;51.058;13.826;2022-11-27T04:49:31;2.50;99.90
64620;DHT22;51029;51.058;13.826;2022-11-27T04:51:57;2.40;99.90
64620;DHT22;51029;51.058;13.826;2022-11-27T04:54:22;2.40;99.90
64620;DHT22;51029;51.058;13.826;2022-11-27T04:56:48;2.40;99.90
64620;DHT22;51029;51.058;13.826;2022-11-27T04:59:14;2.40;99.90
64620;DHT22;51029;51.058;13.826;2022-11-27T05:01:39;2.30;99.90
64620;DHT22;51029;51.058;13.826;2022-11-27T05:04:05;2.30;99.90
64620;DHT22;51029;51.058;13.826;2022-11-27T05:06:30;2.30;99.90
64620;DHT22;51029;51.058;13.826;2022-11-27T05:08:56;2.30;99.90
64620;DHT22;51029;51.058;13.826;2022-11-27T05:11:26;2.20;99.90
64620;DHT22;51029;51.058;13.826;2022-11-27T05:13:53;2.20;99.90
64620;DHT22;51029;51.058;13.826;2022-11-27T05:16:38;2.20;99.90
64620;DHT22;51029;51.058;13.826;2022-11-27T05:19:04;2.10;99.90
64620;DHT22;51029;51.058;13.826;2022-11-27T05:21:30;2.10;99.90
64620;DHT22;51029;51.058;13.826;2022-11-27T05:23:55;2.00;99.90
64620;DHT22;51029;51.058;13.826;2022-11-27T05:26:21;2.00;99.90
64620;DHT22;51029;51.058;13.826;2022-11-27T05:28:46;2.00;99.90
64620;DHT22;51029;51.058;13.826;2022-11-27T05:31:12;1.90;99.90
64620;DHT22;51029;51.058;13.826;2022-11-27T05:33:37;1.80;99.90
64620;DHT22;51029;51.058;13.826;2022-11-27T05:36:03;1.80;99.90
64620;DHT22;51029;51.058;13.826;2022-11-27T05:38:29;1.80;99.90
64620;DHT22;51029;51.058;13.826;2022-11-27T05:40:54;1.80;99.90
64620;DHT22;51029;51.058;13.826;2022-11-27T05:43:20;1.70;99.90
64620;DHT22;51029;51.058;13.826;2022-11-27T05:45:45;1.70;99.90
64620;DHT22;51029;51.058;13.826;2022-11-27T05:48:11;1.60;99.90
64620;DHT22;51029;51.058;13.826;2022-11-27T05:50:36;1.60;99.90
64620;DHT22;51029;51.058;13.826;2022-11-27T05:53:02;1.60;99.90
64620;DHT22;51029;51.058;13.826;2022-11-27T05:55:27;1.60;99.90
64620;DHT22;51029;51.058;13.826;2022-11-27T05:57:53;1.60;99.90
64620;DHT22;51029;51.058;13.826;2022-11-27T06:00:19;1.50;99.90
64620;DHT22;51029;51.058;13.826;2022-11-27T06:02:44;1.50;99.90
64620;DHT22;51029;51.058;13.826;2022-11-27T06:05:10;1.50;99.90
64620;DHT22;51029;51.058;13.826;2022-11-27T06:07:35;1.40;99.90
64620;DHT22;51029;51.058;13.826;2022-11-27T06:10:01;1.40;99.90
64620;DHT22;51029;51.058;13.826;2022-11-27T06:12:27;1.40;99.90
64620;DHT22;51029;51.058;13.826;2022-11-27T06:14:52;1.40;99.90
64620;DHT22;51029;51.058;13.826;2022-11-27T06:17:18;1.40;99.90
64620;DHT22;51029;51.058;13.826;2022-11-27T06:19:43;1.30;99.90
64620;DHT22;51029;51.058;13.826;2022-11-27T06:22:09;1.30;99.90
64620;DHT22;51029;51.058;13.826;2022-11-27T06:24:34;1.30;99.90
64620;DHT22;51029;51.058;13.826;2022-11-27T06:27:00;1.20;99.90
64620;DHT22;51029;51.058;13.826;2022-11-27T06:29:25;1.10;99.90
64620;DHT22;51029;51.058;13.826;2022-11-27T06:31:51;1.20;99.90
64620;DHT22;51029;51.058;13.826;2022-11-27T06:34:17;1.20;99.90
64620;DHT22;51029;51.058;13.826;2022-11-27T06:36:42;1.20;99.90
64620;DHT22;51029;51.058;13.826;2022-11-27T06:39:09;1.20;99.90
64620;DHT22;51029;51.058;13.826;2022-11-27T06:41:36;1.20;99.90
64620;DHT22;51029;51.058;13.826;2022-11-27T06:44:02;1.20;99.90
64620;DHT22;51029;51.058;13.826;2022-11-27T06:46:28;1.20;99.90
64620;DHT22;51029;51.058;13.826;2022-11-27T06:48:55;1.10;99.90
64620;DHT22;51029;51.058;13.826;2022-11-27T06:51:27;1.00;99.90
64620;DHT22;51029;51.058;13.826;2022-11-27T06:53:53;1.00;99.90
64620;DHT22;51029;51.058;13.826;2022-11-27T06:56:22;1.00;99.90
64620;DHT22;51029;51.058;13.826;2022-11-27T06:58:52;1.00;99.90
64620;DHT22;51029;51.058;13.826;2022-11-27T07:01:19;1.10;99.90
64620;DHT22;51029;51.058;13.826;2022-11-27T07:03:45;1.10;99.90
64620;DHT22;51029;51.058;13.826;2022-11-27T07:06:13;1.20;99.90
64620;DHT22;51029;51.058;13.826;2022-11-27T07:08:40;1.20;99.90
64620;DHT22;51029;51.058;13.826;2022-11-27T07:11:08;1.10;99.90
64620;DHT22;51029;51.058;13.826;2022-11-27T07:13:34;1.20;99.90
64620;DHT22;51029;51.058;13.826;2022-11-27T07:16:06;1.20;99.90
64620;DHT22;51029;51.058;13.826;2022-11-27T07:18:52;1.30;99.90
64620;DHT22;51029;51.058;13.826;2022-11-27T07:21:18;1.30;99.90
64620;DHT22;51029;51.058;13.826;2022-11-27T07:23:44;1.20;99.90
64620;DHT22;51029;51.058;13.826;2022-11-27T07:26:18;1.30;99.90
64620;DHT22;51029;51.058;13.826;2022-11-27T07:28:44;1.30;99.90
64620;DHT22;51029;51.058;13.826;2022-11-27T07:31:15;1.30;99.90
64620;DHT22;51029;51.058;13.826;2022-11-27T07:33:40;1.30;99.90
64620;DHT22;51029;51.058;13.826;2022-11-27T07:36:17;1.40;99.90
64620;DHT22;51029;51.058;13.826;2022-11-27T07:38:44;1.40;99.90
64620;DHT22;51029;51.058;13.826;2022-11-27T07:41:10;1.50;99.90
64620;DHT22;51029;51.058;13.826;2022-11-27T07:43:35;1.60;99.90
64620;DHT22;51029;51.058;13.826;2022-11-27T07:46:06;1.70;99.90
64620;DHT22;51029;51.058;13.826;2022-11-27T07:48:32;1.80;99.90
64620;DHT22;51029;51.058;13.826;2022-11-27T07:50:58;1.80;99.90
64620;DHT22;51029;51.058;13.826;2022-11-27T07:53:24;1.90;99.90
64620;DHT22;51029;51.058;13.826;2022-11-27T07:55:49;1.80;99.90
64620;DHT22;51029;51.058;13.826;2022-11-27T07:58:15;1.90;99.90
64620;DHT22;51029;51.058;13.826;2022-11-27T08:00:41;1.90;99.90
64620;DHT22;51029;51.058;13.826;2022-11-27T08:03:07;1.90;99.90
64620;DHT22;51029;51.058;13.826;2022-11-27T08:05:34;2.00;99.90
64620;DHT22;51029;51.058;13.826;2022-11-27T08:08:00;2.00;99.90
64620;DHT22;51029;51.058;13.826;2022-11-27T08:10:34;2.00;99.90
64620;DHT22;51029;51.058;13.826;2022-11-27T08:13:00;2.10;99.90
64620;DHT22;51029;51.058;13.826;2022-11-27T08:15:26;2.10;99.90
64620;DHT22;51029;51.058;13.826;2022-11-27T08:17:51;2.10;99.90
64620;DHT22;51029;51.058;13.826;2022-11-27T08:20:17;2.10;99.90
64620;DHT22;51029;51.058;13.826;2022-11-27T08:22:44;2.10;99.90
64620;DHT22;51029;51.058;13.826;2022-11-27T08:25:09;2.10;99.90
64620;DHT22;51029;51.058;13.826;2022-11-27T08:27:35;2.20;99.90
64620;DHT22;51029;51.058;13.826;2022-11-27T08:30:01;2.20;99.90
64620;DHT22;51029;51.058;13.826;2022-11-27T08:32:26;2.40;99.90
64620;DHT22;51029;51.058;13.826;2022-11-27T08:34:52;2.70;99.90
64620;DHT22;51029;51.058;13.826;2022-11-27T08:37:18;3.00;99.90
64620;DHT22;51029;51.058;13.826;2022-11-27T08:39:43;3.40;99.90
64620;DHT22;51029;51.058;13.826;2022-11-27T08:42:09;3.80;99.90
64620;DHT22;51029;51.058;13.826;2022-11-27T08:44:34;4.20;99.90
64620;DHT22;51029;51.058;13.826;2022-11-27T08:47:00;4.70;99.90
64620;DHT22;51029;51.058;13.826;2022-11-27T08:49:25;5.10;99.90
64620;DHT22;51029;51.058;13.826;2022-11-27T08:51:51;5.50;99.90
64620;DHT22;51029;51.058;13.826;2022-11-27T08:54:16;5.90;99.90
64620;DHT22;51029;51.058;13.826;2022-11-27T08:56:42;6.20;99.90
64620;DHT22;51029;51.058;13.826;2022-11-27T08:59:08;6.50;99.90
64620;DHT22;51029;51.058;13.826;2022-11-27T09:01:33;6.70;99.90
64620;DHT22;51029;51.058;13.826;2022-11-27T09:03:59;7.10;99.90
64620;DHT22;51029;51.058;13.826;2022-11-27T09:06:26;7.40;99.90
64620;DHT22;51029;51.058;13.826;2022-11-27T09:09:02;7.70;99.90
64620;DHT22;51029;51.058;13.826;2022-11-27T09:11:29;8.00;99.90
64620;DHT22;51029;51.058;13.826;2022-11-27T09:13:57;8.10;99.90
64620;DHT22;51029;51.058;13.826;2022-11-27T09:16:23;7.90;99.90
64620;DHT22;51029;51.058;13.826;2022-11-27T09:18:50;8.00;99.90
64620;DHT22;51029;51.058;13.826;2022-11-27T09:21:18;8.00;99.90
64620;DHT22;51029;51.058;13.826;2022-11-27T09:23:44;8.10;99.90
64620;DHT22;51029;51.058;13.826;2022-11-27T09:26:15;8.00;99.90
64620;DHT22;51029;51.058;13.826;2022-11-27T09:28:41;8.00;99.90
64620;DHT22;51029;51.058;13.826;2022-11-27T09:31:09;8.10;99.90
64620;DHT22;51029;51.058;13.826;2022-11-27T09:33:37;8.30;99.90
64620;DHT22;51029;51.058;13.826;2022-11-27T09:36:08;8.70;99.90
64620;DHT22;51029;51.058;13.826;2022-11-27T09:38:35;9.00;99.90
64620;DHT22;51029;51.058;13.826;2022-11-27T09:43:48;10.00;99.70
64620;DHT22;51029;51.058;13.826;2022-11-27T09:46:23;10.60;98.50
64620;DHT22;51029;51.058;13.826;2022-11-27T09:48:50;11.30;96.80
64620;DHT22;51029;51.058;13.826;2022-11-27T09:51:26;12.10;94.80
64620;DHT22;51029;51.058;13.826;2022-11-27T09:53:59;12.90;92.70
64620;DHT22;51029;51.058;13.826;2022-11-27T09:56:28;13.60;90.80
64620;DHT22;51029;51.058;13.826;2022-11-27T09:58:58;14.30;88.00
64620;DHT22;51029;51.058;13.826;2022-11-27T10:01:26;15.20;84.70
64620;DHT22;51029;51.058;13.826;2022-11-27T10:03:53;16.20;79.70
64620;DHT22;51029;51.058;13.826;2022-11-27T10:06:29;16.80;74.20
64620;DHT22;51029;51.058;13.826;2022-11-27T10:11:51;18.20;69.90
64620;DHT22;51029;51.058;13.826;2022-11-27T10:19:50;20.80;59.00
64620;DHT22;51029;51.058;13.826;2022-11-27T10:22:26;21.20;57.70
64620;DHT22;51029;51.058;13.826;2022-11-27T10:27:31;21.90;55.20
64620;DHT22;51029;51.058;13.826;2022-11-27T10:30:03;22.70;53.70
64620;DHT22;51029;51.058;13.826;2022-11-27T10:32:30;23.40;51.70
64620;DHT22;51029;51.058;13.826;2022-11-27T10:34:58;23.90;51.00
64620;DHT22;51029;51.058;13.826;2022-11-27T10:37:33;24.80;49.50
64620;DHT22;51029;51.058;13.826;2022-11-27T10:45:23;25.70;44.00
64620;DHT22;51029;51.058;13.826;2022-11-27T10:47:49;26.40;41.90
64620;DHT22;51029;51.058;13.826;2022-11-27T10:50:16;25.90;41.60
64620;DHT22;51029;51.058;13.826;2022-11-27T10:53:02;26.10;40.20
64620;DHT22;51029;51.058;13.826;2022-11-27T10:56:12;26.40;40.30
64620;DHT22;51029;51.058;13.826;2022-11-27T10:58:56;24.10;39.80
64620;DHT22;51029;51.058;13.826;2022-11-27T11:01:24;25.50;41.20
64620;DHT22;51029;51.058;13.826;2022-11-27T11:04:04;26.30;40.70
64620;DHT22;51029;51.058;13.826;2022-11-27T11:06:31;27.30;38.60
64620;DHT22;51029;51.058;13.826;2022-11-27T11:11:37;27.60;37.60
64620;DHT22;51029;51.058;13.826;2022-11-27T11:14:03;27.10;36.90
64620;DHT22;51029;51.058;13.826;2022-11-27T11:16:28;26.60;37.10
64620;DHT22;51029;51.058;13.826;2022-11-27T11:18:56;26.10;37.50
64620;DHT22;51029;51.058;13.826;2022-11-27T11:21:26;24.20;39.40
64620;DHT22;51029;51.058;13.826;2022-11-27T11:24:13;22.30;41.80
64620;DHT22;51029;51.058;13.826;2022-11-27T11:26:50;20.60;44.50
64620;DHT22;51029;51.058;13.826;2022-11-27T11:29:35;19.70;46.90
64620;DHT22;51029;51.058;13.826;2022-11-27T11:35:01;20.20;47.70
64620;DHT22;51029;51.058;13.826;2022-11-27T11:37:30;19.80;47.20
64620;DHT22;51029;51.058;13.826;2022-11-27T11:42:32;19.20;48.10
64620;DHT22;51029;51.058;13.826;2022-11-27T11:47:44;18.30;48.90
64620;DHT22;51029;51.058;13.826;2022-11-27T11:50:12;18.70;50.90
64620;DHT22;51029;51.058;13.826;2022-11-27T11:52:50;18.60;50.00
64620;DHT22;51029;51.058;13.826;2022-11-27T11:55:22;19.70;48.30
64620;DHT22;51029;51.058;13.826;2022-11-27T11:58:05;21.20;45.30
64620;DHT22;51029;51.058;13.826;2022-11-27T12:00:47;20.00;46.10
64620;DHT22;51029;51.058;13.826;2022-11-27T12:03:44;17.60;48.80
64620;DHT22;51029;51.058;13.826;2022-11-27T12:06:25;16.40;52.60
64620;DHT22;51029;51.058;13.826;2022-11-27T12:08:58;15.70;54.80
64620;DHT22;51029;51.058;13.826;2022-11-27T12:30:21;27.50;36.70
64620;DHT22;51029;51.058;13.826;2022-11-27T12:33:02;28.00;35.40
64620;DHT22;51029;51.058;13.826;2022-11-27T12:35:37;27.80;35.30
64620;DHT22;51029;51.058;13.826;2022-11-27T12:43:27;28.80;32.90
64620;DHT22;51029;51.058;13.826;2022-11-27T12:45:58;26.30;34.60
64620;DHT22;51029;51.058;13.826;2022-11-27T12:48:38;22.80;38.10
64620;DHT22;51029;51.058;13.826;2022-11-27T12:56:41;17.50;48.60
64620;DHT22;51029;51.058;13.826;2022-11-27T12:59:24;17.30;48.90
64620;DHT22;51029;51.058;13.826;2022-11-27T13:02:04;16.90;50.30
64620;DHT22;51029;51.058;13.826;2022-11-27T13:12:41;23.50;42.00
64620;DHT22;51029;51.058;13.826;2022-11-27T13:15:24;25.10;39.70
64620;DHT22;51029;51.058;13.826;2022-11-27T13:17:59;25.90;38.00
64620;DHT22;51029;51.058;13.826;2022-11-27T13:20:35;26.50;36.70
64620;DHT22;51029;51.058;13.826;2022-11-27T13:23:02;23.30;37.90
64620;DHT22;51029;51.058;13.826;2022-11-27T13:25:28;20.40;41.60
64620;DHT22;51029;51.058;13.826;2022-11-27T13:27:55;18.10;45.60
64620;DHT22;51029;51.058;13.826;2022-11-27T13:30:24;16.20;49.80
64620;DHT22;51029;51.058;13.826;2022-11-27T13:32:52;14.70;53.60
64620;DHT22;51029;51.058;13.826;2022-11-27T13:35:25;13.40;56.70
64620;DHT22;51029;51.058;13.826;2022-11-27T13:40:43;12.20;61.30
64620;DHT22;51029;51.058;13.826;2022-11-27T13:43:26;12.10;62.70
64620;DHT22;51029;51.058;13.826;2022-11-27T13:49:01;11.50;65.00
64620;DHT22;51029;51.058;13.826;2022-11-27T13:51:38;11.00;66.10
64620;DHT22;51029;51.058;13.826;2022-11-27T13:54:16;10.70;67.70
64620;DHT22;51029;51.058;13.826;2022-11-27T13:56:44;10.50;69.30
64620;DHT22;51029;51.058;13.826;2022-11-27T13:59:19;10.30;70.40
64620;DHT22;51029;51.058;13.826;2022-11-27T14:02:04;10.10;72.30
64620;DHT22;51029;51.058;13.826;2022-11-27T14:04:31;9.80;73.60
64620;DHT22;51029;51.058;13.826;2022-11-27T14:07:06;9.70;74.30
64620;DHT22;51029;51.058;13.826;2022-11-27T14:09:50;9.60;74.90
64620;DHT22;51029;51.058;13.826;2022-11-27T14:12:29;9.40;76.20
64620;DHT22;51029;51.058;13.826;2022-11-27T14:17:50;9.10;78.50
64620;DHT22;51029;51.058;13.826;2022-11-27T14:22:43;8.90;81.10
64620;DHT22;51029;51.058;13.826;2022-11-27T14:25:36;8.80;81.00
64620;DHT22;51029;51.058;13.826;2022-11-27T14:28:21;8.70;82.00
64620;DHT22;51029;51.058;13.826;2022-11-27T14:30:51;8.50;82.90
64620;DHT22;51029;51.058;13.826;2022-11-27T14:33:25;8.40;83.30
64620;DHT22;51029;51.058;13.826;2022-11-27T14:35:53;8.30;83.70
64620;DHT22;51029;51.058;13.826;2022-11-27T14:38:20;8.30;84.20
64620;DHT22;51029;51.058;13.826;2022-11-27T14:40:47;8.20;84.90
64620;DHT22;51029;51.058;13.826;2022-11-27T14:43:18;8.10;86.50
64620;DHT22;51029;51.058;13.826;2022-11-27T14:45:46;8.00;86.80
64620;DHT22;51029;51.058;13.826;2022-11-27T14:48:24;7.80;87.60
64620;DHT22;51029;51.058;13.826;2022-11-27T14:50:51;7.70;88.60
64620;DHT22;51029;51.058;13.826;2022-11-27T14:53:19;7.50;90.20
64620;DHT22;51029;51.058;13.826;2022-11-27T14:55:52;7.40;91.10
64620;DHT22;51029;51.058;13.826;2022-11-27T14:58:22;7.30;91.40
64620;DHT22;51029;51.058;13.826;2022-11-27T15:03:19;6.90;94.60
64620;DHT22;51029;51.058;13.826;2022-11-27T15:08:30;6.60;95.70
64620;DHT22;51029;51.058;13.826;2022-11-27T15:10:58;6.50;96.50
64620;DHT22;51029;51.058;13.826;2022-11-27T15:13:26;6.30;97.60
64620;DHT22;51029;51.058;13.826;2022-11-27T15:15:56;6.30;99.90
64620;DHT22;51029;51.058;13.826;2022-11-27T15:18:24;6.20;99.90
64620;DHT22;51029;51.058;13.826;2022-11-27T15:20:50;6.10;99.90
64620;DHT22;51029;51.058;13.826;2022-11-27T15:23:29;6.00;99.90
64620;DHT22;51029;51.058;13.826;2022-11-27T15:31:34;5.80;99.90
64620;DHT22;51029;51.058;13.826;2022-11-27T15:36:46;5.70;99.90
64620;DHT22;51029;51.058;13.826;2022-11-27T15:42:00;5.60;99.90
64620;DHT22;51029;51.058;13.826;2022-11-27T15:44:30;5.60;99.90
64620;DHT22;51029;51.058;13.826;2022-11-27T15:46:58;5.60;99.90
64620;DHT22;51029;51.058;13.826;2022-11-27T15:49:24;5.50;99.90
64620;DHT22;51029;51.058;13.826;2022-11-27T15:51:50;5.50;99.90
64620;DHT22;51029;51.058;13.826;2022-11-27T15:54:16;5.50;99.90
64620;DHT22;51029;51.058;13.826;2022-11-27T15:56:42;5.40;99.90
64620;DHT22;51029;51.058;13.826;2022-11-27T15:59:09;5.30;99.90
64620;DHT22;51029;51.058;13.826;2022-11-27T16:01:35;5.30;99.90
64620;DHT22;51029;51.058;13.826;2022-11-27T16:04:01;5.30;99.90
64620;DHT22;51029;51.058;13.826;2022-11-27T16:06:27;5.30;99.90
64620;DHT22;51029;51.058;13.826;2022-11-27T16:08:57;5.20;99.90
64620;DHT22;51029;51.058;13.826;2022-11-27T16:11:24;5.20;99.90
64620;DHT22;51029;51.058;13.826;2022-11-27T16:13:50;5.20;99.90
64620;DHT22;51029;51.058;13.826;2022-11-27T16:16:16;5.10;99.90
64620;DHT22;51029;51.058;13.826;2022-11-27T16:18:42;5.10;99.90
64620;DHT22;51029;51.058;13.826;2022-11-27T16:21:09;5.00;99.90
64620;DHT22;51029;51.058;13.826;2022-11-27T16:23:36;5.00;99.90
64620;DHT22;51029;51.058;13.826;2022-11-27T16:26:03;4.90;99.90
64620;DHT22;51029;51.058;13.826;2022-11-27T16:28:29;4.90;99.90
64620;DHT22;51029;51.058;13.826;2022-11-27T16:30:56;4.90;99.90
64620;DHT22;51029;51.058;13.826;2022-11-27T16:33:29;4.80;99.90
64620;DHT22;51029;51.058;13.826;2022-11-27T16:35:55;4.80;99.90
64620;DHT22;51029;51.058;13.826;2022-11-27T16:38:20;4.70;99.90
64620;DHT22;51029;51.058;13.826;2022-11-27T16:40:47;4.70;99.90
64620;DHT22;51029;51.058;13.826;2022-11-27T16:43:13;4.60;99.90
64620;DHT22;51029;51.058;13.826;2022-11-27T16:45:39;4.60;99.90
64620;DHT22;51029;51.058;13.826;2022-11-27T16:48:05;4.50;99.90
64620;DHT22;51029;51.058;13.826;2022-11-27T16:50:31;4.40;99.90
64620;DHT22;51029;51.058;13.826;2022-11-27T16:52:57;4.40;99.90
64620;DHT22;51029;51.058;13.826;2022-11-27T16:55:23;4.40;99.90
64620;DHT22;51029;51.058;13.826;2022-11-27T16:57:49;4.40;99.90
64620;DHT22;51029;51.058;13.826;2022-11-27T17:00:15;4.30;99.90
64620;DHT22;51029;51.058;13.826;2022-11-27T17:02:40;4.30;99.90
64620;DHT22;51029;51.058;13.826;2022-11-27T17:05:06;4.30;99.90
64620;DHT22;51029;51.058;13.826;2022-11-27T17:07:32;4.30;99.90
64620;DHT22;51029;51.058;13.826;2022-11-27T17:09:58;4.30;99.90
64620;DHT22;51029;51.058;13.826;2022-11-27T17:12:24;4.30;99.90
64620;DHT22;51029;51.058;13.826;2022-11-27T17:14:49;4.20;99.90
64620;DHT22;51029;51.058;13.826;2022-11-27T17:17:15;4.20;99.90
64620;DHT22;51029;51.058;13.826;2022-11-27T17:19:40;4.10;99.90
64620;DHT22;51029;51.058;13.826;2022-11-27T17:22:06;4.20;99.90
64620;DHT22;51029;51.058;13.826;2022-11-27T17:24:32;4.10;99.90
64620;DHT22;51029;51.058;13.826;2022-11-27T17:27:00;4.10;99.90
64620;DHT22;51029;51.058;13.826;2022-11-27T17:29:26;4.00;99.90
64620;DHT22;51029;51.058;13.826;2022-11-27T17:31:52;4.00;99.90
64620;DHT22;51029;51.058;13.826;2022-11-27T17:34:18;3.90;99.90
64620;DHT22;51029;51.058;13.826;2022-11-27T17:36:45;3.90;99.90